Time;durP1;ratioP1;P1;durP2;ratioP2;P2;SDS_P1;SDS_P2;PMS_P1;PMS_P2;Temp;Humidity;BMP_temperature;BMP_pressure;BME280_temperature;BME280_humidity;BME280_pressure;Samples;Min_cycle;Max_cycle;Signal;HPM_P1;HPM_P2
2022/07/10 00:01:17;;;;;;;7.33;1.30;;;;;;;20.08;100.00;102613.50;5077173;28;20110;-46
2022/07/10 00:03:44;;;;;;;12.32;1.63;;;;;;;20.14;100.00;102601.78;5075613;28;20044;-47
2022/07/10 00:06:09;;;;;;;5.50;1.53;;;;;;;20.43;100.00;102609.56;5078567;28;20060;-48
2022/07/10 00:08:35;;;;;;;5.80;1.33;;;;;;;20.40;100.00;102602.66;5072542;28;20301;-48
2022/07/10 00:11:00;;;;;;;5.45;1.40;;;;;;;20.62;100.00;102607.75;5079231;28;20276;-50
2022/07/10 00:13:26;;;;;;;9.50;1.60;;;;;;;20.61;100.00;102606.09;5076227;28;20063;-48
2022/07/10 00:15:51;;;;;;;5.13;1.65;;;;;;;20.58;100.00;102599.19;5079413;28;20261;-50
2022/07/10 00:18:17;;;;;;;3.27;1.27;;;;;;;20.55;100.00;102599.63;5074207;28;20048;-50
2022/07/10 00:20:42;;;;;;;8.60;1.42;;;;;;;20.30;100.00;102594.19;5078698;28;20057;-49
2022/07/10 00:23:08;;;;;;;5.97;1.50;;;;;;;19.98;100.00;102589.53;5078143;28;20161;-50
2022/07/10 00:25:33;;;;;;;6.90;2.27;;;;;;;20.25;100.00;102586.69;5079974;28;20044;-46
2022/07/10 00:27:59;;;;;;;11.52;1.80;;;;;;;20.21;100.00;102585.44;5081693;28;20032;-50
2022/07/10 00:30:25;;;;;;;6.60;1.58;;;;;;;20.12;100.00;102579.44;5081582;28;20091;-48
2022/07/10 00:32:50;;;;;;;6.68;1.85;;;;;;;19.97;100.00;102578.88;5076741;28;20063;-50
2022/07/10 00:35:16;;;;;;;9.98;3.38;;;;;;;19.98;100.00;102569.69;5081547;28;20049;-50
2022/07/10 00:37:41;;;;;;;4.38;1.40;;;;;;;19.96;100.00;102578.06;5075490;28;20025;-47
2022/07/10 00:40:07;;;;;;;4.22;1.67;;;;;;;19.86;100.00;102559.50;5079096;28;20032;-51
2022/07/10 00:42:33;;;;;;;7.05;1.95;;;;;;;19.81;100.00;102567.41;5075406;28;20045;-48
2022/07/10 00:44:58;;;;;;;8.73;1.70;;;;;;;19.83;100.00;102568.03;5080417;28;20040;-48
2022/07/10 00:47:24;;;;;;;8.47;1.50;;;;;;;19.85;100.00;102571.41;5074464;28;20033;-51
2022/07/10 00:49:49;;;;;;;7.75;1.63;;;;;;;20.04;100.00;102575.09;5079034;28;20341;-48
2022/07/10 00:52:17;;;;;;;5.45;1.85;;;;;;;19.81;100.00;102581.00;5074435;28;20095;-51
2022/07/10 00:54:45;;;;;;;5.67;1.47;;;;;;;19.77;100.00;102574.34;5077629;28;20069;-47
2022/07/10 00:57:14;;;;;;;8.27;2.23;;;;;;;19.68;100.00;102576.44;5074794;28;20288;-46
2022/07/10 00:59:40;;;;;;;7.87;2.40;;;;;;;19.67;100.00;102572.06;5075096;28;20403;-47
2022/07/10 01:02:06;;;;;;;12.32;2.58;;;;;;;19.62;100.00;102566.47;5073753;28;20262;-51
2022/07/10 01:04:32;;;;;;;12.15;2.38;;;;;;;19.58;100.00;102566.06;5079712;28;20060;-48
2022/07/10 01:06:58;;;;;;;5.75;1.77;;;;;;;19.49;100.00;102562.75;5074598;28;20055;-50
2022/07/10 01:09:23;;;;;;;6.03;1.55;;;;;;;19.55;100.00;102561.06;5075007;28;20104;-50
2022/07/10 01:11:49;;;;;;;7.10;1.73;;;;;;;19.48;100.00;102558.34;5083001;28;20056;-50
2022/07/10 01:14:16;;;;;;;6.32;1.67;;;;;;;19.48;100.00;102555.66;5076592;28;20321;-48
2022/07/10 01:16:41;;;;;;;8.07;1.50;;;;;;;19.44;100.00;102567.16;5076647;28;20040;-49
2022/07/10 01:19:07;;;;;;;6.53;1.75;;;;;;;19.34;100.00;102563.00;5074219;28;20056;-50
2022/07/10 01:21:34;;;;;;;4.80;1.80;;;;;;;19.04;100.00;102555.34;5078407;28;20089;-49
2022/07/10 01:24:07;;;;;;;6.23;2.03;;;;;;;18.96;100.00;102552.81;5072566;28;20048;-47
2022/07/10 01:26:34;;;;;;;8.97;1.60;;;;;;;18.89;100.00;102554.69;5075797;28;20274;-48
2022/07/10 01:29:03;;;;;;;11.45;3.28;;;;;;;19.09;100.00;102548.44;5075290;28;20306;-51
2022/07/10 01:31:28;;;;;;;5.90;1.70;;;;;;;19.11;100.00;102549.91;5074539;28;20037;-51
2022/07/10 01:33:55;;;;;;;8.93;2.05;;;;;;;18.89;100.00;102547.41;5077289;28;20339;-50
2022/07/10 01:36:21;;;;;;;6.17;2.00;;;;;;;18.74;100.00;102549.50;5073184;28;20045;-51
2022/07/10 01:38:47;;;;;;;14.02;2.42;;;;;;;18.50;100.00;102549.06;5074003;28;20269;-47
2022/07/10 01:41:12;;;;;;;6.93;1.90;;;;;;;18.49;100.00;102547.41;5073548;28;20119;-47
2022/07/10 01:43:42;;;;;;;5.93;2.05;;;;;;;18.46;100.00;102548.66;5079401;28;20036;-52
2022/07/10 01:46:10;;;;;;;6.17;1.80;;;;;;;18.51;100.00;102553.44;5075758;28;20029;-52
2022/07/10 01:48:37;;;;;;;5.50;2.27;;;;;;;18.54;100.00;102550.31;5075326;28;20334;-51
2022/07/10 01:51:02;;;;;;;;;;;;;;;18.53;100.00;102545.94;5072672;28;20365;-50
2022/07/10 01:53:28;;;;;;;8.13;2.03;;;;;;;18.62;100.00;102546.56;5077893;28;19917;-49
2022/07/10 01:55:54;;;;;;;4.85;1.85;;;;;;;18.57;100.00;102551.78;5074638;28;20032;-52
2022/07/10 01:58:20;;;;;;;8.27;2.08;;;;;;;18.55;100.00;102556.56;5075069;28;20066;-48
2022/07/10 02:00:45;;;;;;;8.00;1.77;;;;;;;18.53;100.00;102545.94;5071213;28;20049;-51
2022/07/10 02:05:55;;;;;;;6.37;2.07;;;;;;;18.49;100.00;102542.81;5071334;28;20036;-51
2022/07/10 02:08:20;;;;;;;9.77;2.33;;;;;;;18.52;100.00;102538.03;5075261;28;20302;-51
2022/07/10 02:10:46;;;;;;;9.15;2.28;;;;;;;18.67;100.00;102549.47;5071896;28;20025;-46
2022/07/10 02:13:14;;;;;;;6.15;2.00;;;;;;;18.72;100.00;102540.72;5078117;28;20064;-49
2022/07/10 02:15:40;;;;;;;7.30;1.97;;;;;;;18.52;100.00;102543.44;5074769;28;20056;-51
2022/07/10 02:18:06;;;;;;;12.52;2.42;;;;;;;18.65;100.00;102543.44;5076861;28;20265;-49
2022/07/10 02:20:33;;;;;;;6.13;2.57;;;;;;;18.65;100.00;102538.03;5075331;28;20048;-50
2022/07/10 02:22:58;;;;;;;6.00;2.13;;;;;;;18.55;100.00;102545.75;5077298;28;20029;-48
2022/07/10 02:25:24;;;;;;;6.05;2.47;;;;;;;18.51;100.00;102544.50;5079415;28;20281;-49
2022/07/10 02:27:49;;;;;;;6.17;1.80;;;;;;;18.48;100.00;102535.75;5074045;28;20076;-47
2022/07/10 02:30:15;;;;;;;5.50;2.08;;;;;;;18.59;100.00;102541.56;5078484;28;20092;-47
2022/07/10 02:32:40;;;;;;;10.32;2.47;;;;;;;18.82;100.00;102534.91;5074750;28;20051;-52
2022/07/10 02:35:06;;;;;;;5.63;2.00;;;;;;;18.74;100.00;102527.81;5073074;28;20100;-46
2022/07/10 02:37:31;;;;;;;8.57;1.95;;;;;;;18.70;100.00;102522.00;5054901;28;20052;-49
2022/07/10 02:39:57;;;;;;;8.80;2.23;;;;;;;18.47;100.00;102525.09;5074139;28;20028;-53
2022/07/10 02:42:22;;;;;;;6.57;2.37;;;;;;;18.72;100.00;102514.47;5075264;28;20102;-49
2022/07/10 02:44:48;;;;;;;4.97;1.80;;;;;;;18.85;100.00;102515.50;5073968;28;20153;-48
2022/07/10 02:47:15;;;;;;;7.53;2.20;;;;;;;18.61;100.00;102515.94;5073027;28;20068;-50
2022/07/10 02:49:40;;;;;;;7.47;1.83;;;;;;;18.77;100.00;102511.13;5075960;28;20284;-48
2022/07/10 02:52:06;;;;;;;6.00;1.70;;;;;;;18.87;100.00;102511.53;5071966;28;20033;-46
2022/07/10 02:54:32;;;;;;;;;;;;;;;18.85;100.00;102501.94;5075266;28;20036;-49
2022/07/10 02:56:57;;;;;;;4.33;1.70;;;;;;;18.81;100.00;102500.72;5074472;28;19919;-49
2022/07/10 02:59:23;;;;;;;5.50;2.20;;;;;;;18.61;100.00;102513.25;5075620;28;20029;-50
2022/07/10 03:01:49;;;;;;;6.43;1.85;;;;;;;18.45;100.00;102519.91;5074697;28;20048;-51
2022/07/10 03:04:14;;;;;;;9.15;2.17;;;;;;;18.57;100.00;102516.56;5078425;28;20040;-49
2022/07/10 03:06:39;;;;;;;6.40;2.30;;;;;;;18.65;100.00;102524.47;5073928;28;20053;-50
2022/07/10 03:09:05;;;;;;;6.37;2.47;;;;;;;18.72;100.00;102527.19;5078003;28;20025;-51
2022/07/10 03:11:30;;;;;;;9.73;2.80;;;;;;;18.65;100.00;102534.50;5071139;28;20273;-49
2022/07/10 03:13:56;;;;;;;8.68;2.00;;;;;;;18.60;100.00;102519.69;5071981;28;20088;-49
2022/07/10 03:16:21;;;;;;;8.47;1.93;;;;;;;18.50;100.00;102527.38;5074866;28;20036;-48
2022/07/10 03:18:47;;;;;;;9.00;2.15;;;;;;;18.60;100.00;102516.13;5067398;28;20029;-49
2022/07/10 03:21:13;;;;;;;7.30;2.78;;;;;;;18.68;100.00;102518.63;5072344;28;20100;-48
2022/07/10 03:23:41;;;;;;;7.97;2.70;;;;;;;18.61;100.00;102523.22;5069959;28;20036;-49
2022/07/10 03:26:07;;;;;;;11.97;2.53;;;;;;;18.41;100.00;102523.22;5079255;28;20061;-47
2022/07/10 03:28:33;;;;;;;7.85;2.05;;;;;;;18.44;100.00;102530.94;5074925;28;20273;-49
2022/07/10 03:30:58;;;;;;;7.20;2.13;;;;;;;18.50;100.00;102527.38;5078652;28;20109;-49
2022/07/10 03:33:25;;;;;;;9.20;2.58;;;;;;;18.49;100.00;102528.44;5073958;28;20098;-47
2022/07/10 03:35:50;;;;;;;9.68;2.60;;;;;;;18.78;100.00;102521.75;5074537;28;20040;-47
2022/07/10 03:38:16;;;;;;;9.82;2.30;;;;;;;18.68;100.00;102518.63;5072933;28;20067;-51
2022/07/10 03:40:42;;;;;;;13.80;2.97;;;;;;;18.93;100.00;102520.72;5075145;28;20071;-50
2022/07/10 03:43:07;;;;;;;6.43;1.80;;;;;;;18.63;100.00;102521.13;5073942;28;20025;-50
2022/07/10 03:45:33;;;;;;;6.40;1.90;;;;;;;18.84;100.00;102519.25;5076425;28;20052;-46
2022/07/10 03:47:58;;;;;;;8.40;2.22;;;;;;;18.77;100.00;102511.97;5077060;28;20071;-49
2022/07/10 03:50:24;;;;;;;10.00;2.27;;;;;;;18.92;100.00;102490.06;5074085;28;20045;-47
2022/07/10 03:52:49;;;;;;;10.75;2.20;;;;;;;18.94;100.00;102500.69;5071317;28;20133;-46
2022/07/10 03:55:15;;;;;;;7.10;1.73;;;;;;;19.08;100.00;102506.97;5067074;28;20066;-48
2022/07/10 03:57:56;;;;;;;10.10;2.20;;;;;;;19.18;100.00;102503.81;5069377;28;20049;-51
2022/07/10 04:00:24;;;;;;;7.30;1.80;;;;;;;19.14;100.00;102500.69;5067116;28;20079;-50
2022/07/10 04:03:05;;;;;;;7.50;2.00;;;;;;;19.20;100.00;102493.56;5074862;28;20262;-50
2022/07/10 04:05:31;;;;;;;8.53;1.83;;;;;;;19.23;100.00;102497.72;5075013;28;20278;-51
2022/07/10 04:07:58;;;;;;;10.57;2.15;;;;;;;19.01;100.00;102496.13;5076524;28;20261;-50
2022/07/10 04:10:25;;;;;;;6.37;1.70;;;;;;;19.09;100.00;102500.50;5070848;28;20080;-50
2022/07/10 04:12:51;;;;;;;8.10;1.80;;;;;;;19.27;100.00;102499.81;5067408;28;20269;-48
2022/07/10 04:15:17;;;;;;;5.82;2.30;;;;;;;19.34;100.00;102495.19;5071250;28;20266;-49
2022/07/10 04:17:43;;;;;;;7.63;1.63;;;;;;;19.46;100.00;102505.38;5072191;28;20047;-47
2022/07/10 04:20:10;;;;;;;12.13;2.10;;;;;;;19.42;100.00;102501.44;5068734;28;20037;-49
2022/07/10 04:22:36;;;;;;;;;;;;;;;19.51;100.00;102510.16;5067082;28;20044;-47
2022/07/10 04:25:02;;;;;;;11.90;1.67;;;;;;;19.51;100.00;102505.56;5078784;28;19916;-50
2022/07/10 04:27:28;;;;;;;8.13;1.63;;;;;;;19.00;100.00;102494.44;5072185;28;20036;-50
2022/07/10 04:29:54;;;;;;;9.77;1.63;;;;;;;19.37;100.00;102487.66;5084356;28;20332;-51
2022/07/10 04:32:20;;;;;;;11.88;1.92;;;;;;;19.18;100.00;102501.09;5078684;28;20040;-50
2022/07/10 04:34:45;;;;;;;13.65;2.35;;;;;;;19.20;100.00;102499.00;5075115;28;20048;-50
2022/07/10 04:37:11;;;;;;;5.68;1.90;;;;;;;19.24;100.00;102511.09;5078379;28;20055;-47
2022/07/10 04:39:37;;;;;;;7.70;1.50;;;;;;;19.41;100.00;102508.72;5080103;28;20029;-48
2022/07/10 04:42:04;;;;;;;12.07;2.10;;;;;;;19.58;100.00;102511.78;5075414;28;20111;-47
2022/07/10 04:44:30;;;;;;;5.33;1.43;;;;;;;19.56;100.00;102508.44;5076637;28;20029;-50
2022/07/10 04:46:55;;;;;;;7.20;2.20;;;;;;;19.84;100.00;102512.72;5071418;28;20280;-48
2022/07/10 04:49:21;;;;;;;9.50;2.22;;;;;;;19.62;100.00;102509.47;5074713;28;20032;-52
2022/07/10 04:51:47;;;;;;;7.40;1.40;;;;;;;19.75;100.00;102506.72;5070485;28;20068;-50
2022/07/10 04:54:12;;;;;;;10.40;2.28;;;;;;;19.43;100.00;102508.53;5076543;28;20061;-49
2022/07/10 04:56:38;;;;;;;5.65;2.15;;;;;;;19.17;100.00;102504.84;5074795;28;20041;-49
2022/07/10 04:59:03;;;;;;;3.88;1.55;;;;;;;19.39;100.00;102501.88;5074041;28;20041;-49
2022/07/10 05:01:29;;;;;;;7.40;1.93;;;;;;;19.18;100.00;102501.09;5074569;28;20072;-49
2022/07/10 05:03:54;;;;;;;9.02;1.58;;;;;;;19.46;100.00;102508.09;5073749;28;20278;-47
2022/07/10 05:06:20;;;;;;;8.32;1.70;;;;;;;19.40;100.00;102507.06;5072114;28;20056;-52
2022/07/10 05:08:45;;;;;;;4.57;1.40;;;;;;;19.45;100.00;102506.44;5073710;28;20041;-50
2022/07/10 05:11:11;;;;;;;8.93;1.60;;;;;;;19.20;100.00;102505.25;5072335;28;20312;-51
2022/07/10 05:13:37;;;;;;;10.20;1.83;;;;;;;19.63;100.00;102505.72;5072669;28;20041;-51
2022/07/10 05:16:04;;;;;;;4.05;1.58;;;;;;;19.62;100.00;102506.75;5070826;28;20088;-49
2022/07/10 05:18:30;;;;;;;5.63;1.73;;;;;;;19.60;100.00;102517.81;5070745;28;20112;-53
2022/07/10 05:20:55;;;;;;;10.30;3.40;;;;;;;19.63;100.00;102520.13;5074569;28;20274;-50
2022/07/10 05:23:21;;;;;;;11.60;2.13;;;;;;;19.37;100.00;102515.63;5072430;28;20036;-48
2022/07/10 05:25:47;;;;;;;8.17;1.80;;;;;;;19.48;100.00;102516.84;5070355;28;20037;-49
2022/07/10 05:28:14;;;;;;;11.73;1.50;;;;;;;19.62;100.00;102521.19;5074458;28;20393;-52
2022/07/10 05:30:40;;;;;;;7.43;1.73;;;;;;;19.72;100.00;102518.00;5074601;28;20048;-47
2022/07/10 05:33:06;;;;;;;7.30;1.55;;;;;;;19.71;100.00;102520.94;5076285;28;20285;-49
2022/07/10 05:35:31;;;;;;;9.43;1.50;;;;;;;19.60;100.00;102517.81;5064586;28;20034;-49
2022/07/10 05:37:56;;;;;;;4.33;1.53;;;;;;;19.91;100.00;102516.25;5070384;28;20333;-52
2022/07/10 05:40:22;;;;;;;6.90;1.77;;;;;;;19.67;100.00;102514.28;5070587;28;20025;-51
2022/07/10 05:42:48;;;;;;;8.73;1.58;;;;;;;19.80;100.00;102518.78;5070583;28;20056;-51
2022/07/10 05:45:13;;;;;;;5.77;1.30;;;;;;;19.84;100.00;102511.88;5071830;28;20056;-48
2022/07/10 05:47:39;;;;;;;7.13;1.65;;;;;;;20.23;100.00;102518.16;5078287;28;20067;-52
2022/07/10 05:50:05;;;;;;;3.78;1.83;;;;;;;20.14;100.00;102514.88;5074755;28;20037;-49
2022/07/10 05:52:30;;;;;;;7.25;2.85;;;;;;;20.07;100.00;102516.81;5077114;28;20029;-50
2022/07/10 05:54:57;;;;;;;3.55;1.27;;;;;;;20.45;100.00;102520.50;5074230;28;20028;-48
2022/07/10 05:57:23;;;;;;;3.43;1.47;;;;;;;20.62;100.00;102509.91;5074197;28;20532;-51
2022/07/10 05:59:48;;;;;;;8.73;2.13;;;;;;;20.52;100.00;102517.72;5076998;28;20056;-50
2022/07/10 06:02:15;;;;;;;6.55;1.20;;;;;;;20.36;100.00;102506.34;5072667;28;20041;-50
2022/07/10 06:04:40;;;;;;;8.82;1.55;;;;;;;20.76;100.00;102510.63;5077436;28;20057;-48
2022/07/10 06:07:05;;;;;;;8.57;1.55;;;;;;;20.86;100.00;102510.13;5067131;28;20086;-52
2022/07/10 06:09:31;;;;;;;9.38;1.50;;;;;;;21.00;100.00;102506.22;5068921;28;20037;-50
2022/07/10 06:11:56;;;;;;;7.27;1.60;;;;;;;21.11;100.00;102503.81;5071346;28;20096;-51
2022/07/10 06:14:22;;;;;;;9.73;2.17;;;;;;;21.04;100.00;102503.88;5073339;28;20059;-50
2022/07/10 06:16:48;;;;;;;7.72;1.95;;;;;;;20.77;100.00;102507.69;5070049;28;20330;-50
2022/07/10 06:19:13;;;;;;;9.25;1.55;;;;;;;21.39;100.00;102513.31;5074371;28;20045;-50
2022/07/10 06:21:39;;;;;;;6.00;1.38;;;;;;;21.65;100.00;102516.78;5072033;28;20040;-51
2022/07/10 06:24:04;;;;;;;5.22;1.40;;;;;;;21.75;100.00;102523.34;5074631;28;20033;-50
2022/07/10 06:26:30;;;;;;;15.15;1.77;;;;;;;21.70;100.00;102525.13;5069020;28;20063;-51
2022/07/10 06:28:56;;;;;;;12.77;1.70;;;;;;;21.65;100.00;102514.06;5071716;28;20032;-47
2022/07/10 06:31:21;;;;;;;8.50;2.37;;;;;;;21.81;100.00;102513.44;5069624;28;20125;-48
2022/07/10 06:33:47;;;;;;;8.15;0.88;;;;;;;21.60;100.00;102521.00;5067334;28;20030;-51
2022/07/10 06:36:12;;;;;;;9.48;1.80;;;;;;;21.89;100.00;102528.63;5068275;28;20045;-49
2022/07/10 06:38:38;;;;;;;6.18;1.70;;;;;;;21.91;100.00;102532.78;5067237;28;20045;-47
2022/07/10 06:41:04;;;;;;;7.20;1.35;;;;;;;21.82;100.00;102528.72;5069370;28;20087;-51
2022/07/10 06:43:29;;;;;;;7.15;1.92;;;;;;;21.77;100.00;102531.31;5072655;28;20118;-52
2022/07/10 06:45:56;;;;;;;12.93;2.22;;;;;;;21.62;100.00;102523.50;5072210;28;20100;-51
2022/07/10 06:48:22;;;;;;;4.67;1.70;;;;;;;21.73;100.00;102530.09;5072690;28;20029;-54
2022/07/10 06:50:48;;;;;;;;;;;;;;;21.66;100.00;102519.31;5071619;28;20154;-52
2022/07/10 06:53:15;;;;;;;6.73;1.50;;;;;;;21.55;100.00;102523.59;5074732;28;19920;-50
2022/07/10 06:55:40;;;;;;;12.33;3.20;;;;;;;21.76;100.00;102519.56;5069451;28;20033;-50
2022/07/10 06:58:06;;;;;;;14.85;2.88;;;;;;;22.53;100.00;102517.22;5069934;28;20096;-50
2022/07/10 07:00:31;;;;;;;6.53;1.50;;;;;;;22.68;100.00;102516.75;5068438;28;20038;-53
2022/07/10 07:02:56;;;;;;;9.27;3.13;;;;;;;21.75;100.00;102517.09;5069007;28;20045;-49
2022/07/10 07:05:22;;;;;;;5.40;1.50;;;;;;;22.13;100.00;102515.91;5069937;28;20105;-51
2022/07/10 07:07:48;;;;;;;11.95;2.22;;;;;;;22.10;100.00;102518.28;5066850;28;20032;-52
2022/07/10 07:10:13;;;;;;;4.88;1.52;;;;;;;21.76;100.00;102516.84;5074372;28;20037;-54
2022/07/10 07:12:39;;;;;;;7.60;1.70;;;;;;;21.99;100.00;102518.00;5066696;28;20154;-49
2022/07/10 07:15:06;;;;;;;7.60;1.83;;;;;;;22.14;100.00;102519.47;5068828;28;20051;-50
2022/07/10 07:17:45;;;;;;;7.33;1.00;;;;;;;21.97;100.00;102524.75;5073330;28;20028;-52
2022/07/10 07:23:11;;;;;;;3.23;1.23;;;;;;;21.99;100.00;102534.34;5075106;28;20056;-53
2022/07/10 07:25:46;;;;;;;5.17;1.50;;;;;;;21.80;100.00;102530.00;5066126;28;20096;-53
2022/07/10 07:28:17;;;;;;;5.47;1.87;;;;;;;21.83;100.00;102530.38;5066667;28;20123;-53
2022/07/10 07:30:43;;;;;;;5.60;2.83;;;;;;;22.18;100.00;102528.84;5067770;28;20028;-51
2022/07/10 07:33:08;;;;;;;7.30;1.60;;;;;;;22.01;100.00;102534.13;5067516;28;20101;-50
2022/07/10 07:35:34;;;;;;;6.38;1.83;;;;;;;22.12;100.00;102532.50;5081453;28;20055;-51
2022/07/10 07:38:01;;;;;;;12.30;3.28;;;;;;;22.09;100.00;102525.59;5075848;28;20036;-51
2022/07/10 07:40:27;;;;;;;7.93;2.17;;;;;;;22.20;100.00;102527.53;5068103;28;20037;-52
2022/07/10 07:42:53;;;;;;;7.68;2.67;;;;;;;22.53;100.00;102527.28;5066384;28;20055;-49
2022/07/10 07:45:20;;;;;;;4.53;1.10;;;;;;;22.70;100.00;102533.69;5067667;28;20036;-54
2022/07/10 07:47:57;;;;;;;6.10;1.40;;;;;;;22.90;100.00;102527.06;5068202;28;20044;-52
2022/07/10 07:50:26;;;;;;;6.97;1.57;;;;;;;23.05;100.00;102530.09;5066293;28;20111;-49
2022/07/10 07:52:52;;;;;;;10.43;2.57;;;;;;;22.80;100.00;102538.56;5068083;28;20024;-48
2022/07/10 07:55:19;;;;;;;7.40;2.00;;;;;;;22.56;100.00;102526.78;5072060;28;20029;-50
2022/07/10 07:57:46;;;;;;;11.40;1.90;;;;;;;22.70;100.00;102532.84;5072817;28;20029;-51
2022/07/10 08:00:13;;;;;;;3.60;1.73;;;;;;;22.45;100.00;102531.97;5080284;28;20024;-52
2022/07/10 08:02:39;;;;;;;9.33;1.80;;;;;;;22.94;100.00;102524.66;5072744;28;20036;-50
2022/07/10 08:05:06;;;;;;;6.40;2.03;;;;;;;22.86;100.00;102532.16;5077425;28;20059;-55
2022/07/10 08:07:39;;;;;;;;;;;;;;;22.84;100.00;102528.00;5075017;28;20009;-50
2022/07/10 08:10:08;;;;;;;10.33;1.93;;;;;;;22.88;100.00;102530.00;5073805;28;19908;-52
2022/07/10 08:12:33;;;;;;;6.67;1.43;;;;;;;22.74;100.00;102534.06;5073280;28;20067;-48
2022/07/10 08:14:59;;;;;;;16.75;7.20;;;;;;;23.23;100.00;102532.94;5070439;28;20025;-50
2022/07/10 08:17:26;;;;;;;12.80;3.90;;;;;;;23.46;100.00;102534.81;5075000;28;20054;-51
2022/07/10 08:19:52;;;;;;;3.50;1.70;;;;;;;23.91;100.00;102538.69;5076699;28;20024;-51
2022/07/10 08:22:18;;;;;;;;;;;;;;;23.66;100.00;102541.75;5076725;28;20044;-49
2022/07/10 08:24:43;;;;;;;2.93;1.20;;;;;;;23.63;100.00;102526.69;5073798;28;19940;-53
2022/07/10 08:27:09;;;;;;;9.90;1.70;;;;;;;23.32;100.00;102532.38;5077737;28;20056;-51
2022/07/10 08:29:35;;;;;;;6.10;1.50;;;;;;;23.43;100.00;102540.75;5072946;28;20033;-51
2022/07/10 08:32:00;;;;;;;8.05;2.38;;;;;;;23.24;100.00;102534.63;5078938;28;20106;-50
2022/07/10 08:34:27;;;;;;;12.02;3.13;;;;;;;22.44;100.00;102541.22;5076561;28;20036;-51
2022/07/10 08:36:52;;;;;;;;;;;;;;;22.36;100.00;102541.53;5072404;28;20043;-49
2022/07/10 08:39:21;;;;;;;12.37;6.07;;;;;;;22.62;100.00;102537.59;5071692;28;19912;-50
2022/07/10 08:41:50;;;;;;;9.50;2.27;;;;;;;22.58;100.00;102541.00;5073416;28;20102;-50
2022/07/10 08:44:17;;;;;;;6.83;2.97;;;;;;;22.73;100.00;102535.13;5074307;28;20033;-50
2022/07/10 08:46:43;;;;;;;4.60;1.73;;;;;;;23.02;100.00;102537.97;5071420;28;20029;-46
2022/07/10 08:49:13;;;;;;;;;;;;;;;22.84;100.00;102539.75;5076161;28;20063;-51
2022/07/10 08:51:47;;;;;;;9.93;2.27;;;;;;;22.47;100.00;102538.06;5073776;28;20073;-48
2022/07/10 08:54:17;;;;;;;6.67;1.83;;;;;;;22.86;100.00;102534.88;5073556;28;20028;-49
2022/07/10 08:56:43;;;;;;;5.63;1.93;;;;;;;22.91;100.00;102534.97;5073123;28;20036;-51
2022/07/10 08:59:12;;;;;;;3.63;1.73;;;;;;;23.14;100.00;102538.75;5077845;28;20045;-52
2022/07/10 09:01:38;;;;;;;5.07;2.00;;;;;;;23.73;100.00;102534.25;5072625;28;20025;-50
2022/07/10 09:04:03;;;;;;;5.07;1.88;;;;;;;24.04;100.00;102535.69;5077946;28;20052;-47
2022/07/10 09:06:29;;;;;;;6.68;2.03;;;;;;;23.84;100.00;102527.91;5078296;28;20033;-53
2022/07/10 09:09:06;;;;;;;5.05;1.85;;;;;;;23.94;100.00;102529.16;5071849;28;20065;-54
2022/07/10 09:11:33;;;;;;;10.07;2.23;;;;;;;23.86;100.00;102530.38;5073092;28;20057;-51
2022/07/10 09:14:04;;;;;;;8.10;2.43;;;;;;;24.51;100.00;102527.44;5069388;28;20040;-51
2022/07/10 09:16:32;;;;;;;6.03;1.93;;;;;;;24.65;100.00;102528.75;5076215;28;20116;-51
2022/07/10 09:19:14;;;;;;;5.90;3.27;;;;;;;24.53;100.00;102528.84;5073196;28;20036;-50
2022/07/10 09:21:40;;;;;;;9.87;4.67;;;;;;;24.56;100.00;102530.25;5074475;28;20053;-48
2022/07/10 09:24:07;;;;;;;5.10;2.47;;;;;;;24.31;100.00;102529.56;5075394;28;20063;-53
2022/07/10 09:26:36;;;;;;;6.43;1.60;;;;;;;24.00;100.00;102529.03;5072790;28;20064;-53
2022/07/10 09:29:10;;;;;;;3.40;1.40;;;;;;;24.00;100.00;102528.22;5071099;28;20124;-49
2022/07/10 09:32:05;;;;;;;6.20;1.70;;;;;;;24.55;100.00;102523.94;5070548;28;20029;-50
2022/07/10 09:34:36;;;;;;;6.33;1.67;;;;;;;25.08;100.00;102522.81;5070783;28;20035;-51
2022/07/10 09:37:21;;;;;;;4.13;1.80;;;;;;;25.27;100.00;102517.88;5072030;28;20036;-48
2022/07/10 09:40:03;;;;;;;3.17;1.60;;;;;;;25.79;100.00;102519.28;5068249;28;20063;-53
2022/07/10 09:42:36;;;;;;;4.03;1.60;;;;;;;25.82;100.00;102517.97;5072352;28;20273;-51
2022/07/10 09:45:20;;;;;;;8.37;4.13;;;;;;;26.05;100.00;102516.78;5076579;28;20093;-50
2022/07/10 09:47:49;;;;;;;6.77;2.40;;;;;;;25.84;100.00;102510.31;5074117;28;20028;-50
2022/07/10 09:50:22;;;;;;;4.37;1.97;;;;;;;25.85;100.00;102512.78;5073372;28;20048;-53
2022/07/10 09:52:51;;;;;;;9.17;1.63;;;;;;;25.76;100.00;102504.22;5071318;28;20037;-50
2022/07/10 09:55:19;;;;;;;4.90;2.07;;;;;;;26.32;100.00;102505.81;5072692;28;20033;-54
2022/07/10 09:57:51;;;;;;;6.07;2.23;;;;;;;26.31;100.00;102508.84;5071396;28;20044;-53
2022/07/10 10:00:16;;;;;;;2.57;1.80;;;;;;;26.72;100.00;102503.59;5074422;28;20047;-50
2022/07/10 10:02:41;;;;;;;;;;;;;;;26.22;100.00;102507.66;5068479;28;20037;-51
2022/07/10 10:05:08;;;;;;;6.90;2.43;;;;;;;26.93;100.00;102500.19;5076163;28;19920;-52
2022/07/10 10:07:36;;;;;;;;;;;;;;;26.89;99.61;102502.63;5070022;28;20061;-51
2022/07/10 10:10:03;;;;;;;3.83;1.37;;;;;;;26.53;100.00;102505.97;5081217;28;19973;-50
2022/07/10 10:12:35;;;;;;;4.33;2.13;;;;;;;26.86;100.00;102508.66;5068997;28;20033;-52
2022/07/10 10:15:01;;;;;;;8.93;3.57;;;;;;;27.08;99.17;102507.69;5069603;28;20028;-50
2022/07/10 10:17:28;;;;;;;5.67;1.67;;;;;;;26.94;100.00;102510.09;5073158;28;20057;-51
2022/07/10 10:22:43;;;;;;;2.67;1.20;;;;;;;27.88;89.33;102495.56;5074314;28;20064;-51
2022/07/10 10:25:09;;;;;;;4.30;1.53;;;;;;;28.13;87.06;102505.72;5077201;28;20055;-49
2022/07/10 10:27:36;;;;;;;3.63;1.50;;;;;;;28.07;86.75;102508.78;5077892;28;20092;-48
2022/07/10 10:30:02;;;;;;;4.13;1.70;;;;;;;27.65;90.86;102503.22;5069726;28;20150;-47
2022/07/10 10:32:28;;;;;;;4.27;1.27;;;;;;;27.82;90.76;102497.47;5073906;28;20033;-48
2022/07/10 10:34:56;;;;;;;;;;;;;;;28.02;89.99;102495.84;5080143;28;20029;-50
2022/07/10 10:37:32;;;;;;;2.10;1.30;;;;;;;27.93;88.25;102492.81;5068242;28;19919;-52
2022/07/10 10:39:58;;;;;;;6.07;1.30;;;;;;;28.25;86.62;102494.47;5072846;28;20048;-50
2022/07/10 10:42:33;;;;;;;;;;;;;;;27.99;90.33;102501.88;5070570;28;20076;-50
2022/07/10 10:45:35;;;;;;;5.77;1.20;;;;;;;28.15;88.32;102500.84;5072455;28;19940;-52
2022/07/10 10:48:01;;;;;;;3.43;1.27;;;;;;;27.63;92.56;102495.25;5073176;28;20040;-50
2022/07/10 10:50:53;;;;;;;6.27;1.40;;;;;;;28.18;89.71;102497.53;5078623;28;20104;-50
2022/07/10 10:53:27;;;;;;;5.10;2.00;;;;;;;28.69;84.35;102501.31;5072681;28;20055;-50
2022/07/10 10:56:05;;;;;;;5.37;1.50;;;;;;;28.97;83.60;102498.22;5075100;28;20032;-50
2022/07/10 10:58:37;;;;;;;4.37;2.13;;;;;;;28.80;83.40;102493.88;5069365;28;20037;-51
2022/07/10 11:01:04;;;;;;;2.10;1.10;;;;;;;28.65;83.78;102502.97;5074040;28;20028;-50
2022/07/10 11:03:30;;;;;;;4.57;1.70;;;;;;;28.11;88.55;102488.69;5068163;28;20029;-50
2022/07/10 11:05:55;;;;;;;5.30;1.50;;;;;;;27.66;92.41;102482.88;5073115;28;20122;-51
2022/07/10 11:08:39;;;;;;;4.73;1.53;;;;;;;27.66;94.06;102493.88;5069002;28;20105;-50
2022/07/10 11:11:30;;;;;;;4.77;1.43;;;;;;;27.84;91.14;102483.47;5069536;28;20037;-53
2022/07/10 11:13:57;;;;;;;3.00;1.13;;;;;;;27.82;92.25;102482.91;5073967;28;20093;-49
2022/07/10 11:16:24;;;;;;;4.00;1.10;;;;;;;26.73;100.00;102491.53;5072288;28;20047;-49
2022/07/10 11:18:54;;;;;;;5.97;1.67;;;;;;;26.98;100.00;102492.78;5077404;28;20040;-49
2022/07/10 11:21:25;;;;;;;7.33;1.53;;;;;;;26.72;100.00;102487.16;5076082;28;20032;-54
2022/07/10 11:24:11;;;;;;;6.03;1.57;;;;;;;26.48;100.00;102492.22;5071196;28;20029;-53
2022/07/10 11:26:43;;;;;;;3.00;1.17;;;;;;;26.62;100.00;102489.84;5068179;28;20037;-50
2022/07/10 11:29:09;;;;;;;3.53;1.40;;;;;;;26.27;100.00;102488.50;5068950;28;20047;-51